sensor_id;sensor_type;location;lat;lon;timestamp;pressure;altitude;pressure_sealevel;temperature;humidity
77205;BME280;66188;46.626;18.866;2023-02-13T00:00:00;102362.28;;;16.79;29.25
77205;BME280;66188;46.626;18.866;2023-02-13T00:02:26;102366.47;;;16.72;29.12
77205;BME280;66188;46.626;18.866;2023-02-13T00:04:52;102359.63;;;16.68;29.47
77205;BME280;66188;46.626;18.866;2023-02-13T00:07:17;102372.63;;;16.63;29.55
77205;BME280;66188;46.626;18.866;2023-02-13T00:09:43;102376.94;;;16.55;29.28
77205;BME280;66188;46.626;18.866;2023-02-13T00:12:08;102363.97;;;16.49;29.77
77205;BME280;66188;46.626;18.866;2023-02-13T00:14:35;102354.00;;;16.39;29.34
77205;BME280;66188;46.626;18.866;2023-02-13T00:17:02;102362.06;;;16.39;30.01
77205;BME280;66188;46.626;18.866;2023-02-13T00:19:28;102369.13;;;16.40;29.89
77205;BME280;66188;46.626;18.866;2023-02-13T00:21:53;102368.81;;;16.34;29.81
77205;BME280;66188;46.626;18.866;2023-02-13T00:24:19;102371.03;;;16.29;30.10
77205;BME280;66188;46.626;18.866;2023-02-13T00:26:44;102354.44;;;16.13;29.50
77205;BME280;66188;46.626;18.866;2023-02-13T00:29:10;102364.44;;;16.22;30.07
77205;BME280;66188;46.626;18.866;2023-02-13T00:31:37;102362.97;;;16.18;29.79
77205;BME280;66188;46.626;18.866;2023-02-13T00:34:03;102366.91;;;16.14;30.16
77205;BME280;66188;46.626;18.866;2023-02-13T00:36:28;102367.78;;;16.14;29.73
77205;BME280;66188;46.626;18.866;2023-02-13T00:38:55;102364.63;;;16.09;29.83
77205;BME280;66188;46.626;18.866;2023-02-13T00:41:21;102362.16;;;16.06;30.20
77205;BME280;66188;46.626;18.866;2023-02-13T00:43:47;102363.53;;;16.01;29.81
77205;BME280;66188;46.626;18.866;2023-02-13T00:46:14;102351.69;;;15.92;29.77
77205;BME280;66188;46.626;18.866;2023-02-13T00:48:39;102367.78;;;15.92;29.91
77205;BME280;66188;46.626;18.866;2023-02-13T00:51:06;102356.81;;;15.95;30.09
77205;BME280;66188;46.626;18.866;2023-02-13T00:53:32;102359.75;;;15.92;30.19
77205;BME280;66188;46.626;18.866;2023-02-13T00:55:58;102354.63;;;15.89;30.39
77205;BME280;66188;46.626;18.866;2023-02-13T00:58:24;102356.72;;;15.86;29.96
77205;BME280;66188;46.626;18.866;2023-02-13T01:00:51;102349.75;;;15.83;30.57
77205;BME280;66188;46.626;18.866;2023-02-13T01:03:17;102353.56;;;15.80;29.89
77205;BME280;66188;46.626;18.866;2023-02-13T01:05:43;102358.19;;;15.78;30.42
77205;BME280;66188;46.626;18.866;2023-02-13T01:08:10;102353.31;;;15.72;30.54
77205;BME280;66188;46.626;18.866;2023-02-13T01:10:37;102356.00;;;15.72;30.24
77205;BME280;66188;46.626;18.866;2023-02-13T01:13:03;102351.97;;;15.67;30.32
77205;BME280;66188;46.626;18.866;2023-02-13T01:15:29;102356.38;;;15.68;30.04
77205;BME280;66188;46.626;18.866;2023-02-13T01:17:55;102363.56;;;15.67;30.23
77205;BME280;66188;46.626;18.866;2023-02-13T01:20:23;102354.88;;;15.64;30.26
77205;BME280;66188;46.626;18.866;2023-02-13T01:22:49;102353.56;;;15.58;29.98
77205;BME280;66188;46.626;18.866;2023-02-13T01:25:14;102352.47;;;15.61;30.08
77205;BME280;66188;46.626;18.866;2023-02-13T01:27:40;102349.31;;;15.56;30.36
77205;BME280;66188;46.626;18.866;2023-02-13T01:30:06;102352.22;;;15.53;30.41
77205;BME280;66188;46.626;18.866;2023-02-13T01:32:36;102347.25;;;15.48;30.67
77205;BME280;66188;46.626;18.866;2023-02-13T01:35:03;102341.13;;;15.46;30.11
77205;BME280;66188;46.626;18.866;2023-02-13T01:37:28;102351.00;;;15.46;30.15
77205;BME280;66188;46.626;18.866;2023-02-13T01:39:54;102357.22;;;15.46;30.11
77205;BME280;66188;46.626;18.866;2023-02-13T01:42:26;102346.69;;;15.43;30.48
77205;BME280;66188;46.626;18.866;2023-02-13T01:44:54;102363.06;;;15.40;30.58
77205;BME280;66188;46.626;18.866;2023-02-13T01:47:38;102355.97;;;15.39;30.64
77205;BME280;66188;46.626;18.866;2023-02-13T01:50:30;102360.59;;;15.37;30.66
77205;BME280;66188;46.626;18.866;2023-02-13T01:53:09;102353.53;;;15.36;30.27
77205;BME280;66188;46.626;18.866;2023-02-13T01:55:44;102350.84;;;15.36;30.56
77205;BME280;66188;46.626;18.866;2023-02-13T01:58:15;102354.84;;;15.31;30.81
77205;BME280;66188;46.626;18.866;2023-02-13T02:00:44;102356.44;;;15.33;30.10
77205;BME280;66188;46.626;18.866;2023-02-13T02:03:27;102335.97;;;15.21;30.64
77205;BME280;66188;46.626;18.866;2023-02-13T02:05:56;102351.56;;;15.27;29.90
77205;BME280;66188;46.626;18.866;2023-02-13T02:08:22;102351.09;;;15.22;30.22
77205;BME280;66188;46.626;18.866;2023-02-13T02:10:48;102331.91;;;15.15;30.41
77205;BME280;66188;46.626;18.866;2023-02-13T02:13:16;102352.06;;;15.21;30.55
77205;BME280;66188;46.626;18.866;2023-02-13T02:15:43;102343.13;;;15.20;30.17
77205;BME280;66188;46.626;18.866;2023-02-13T02:18:14;102344.38;;;15.16;30.48
77205;BME280;66188;46.626;18.866;2023-02-13T02:32:09;102339.75;;;15.07;31.00
77205;BME280;66188;46.626;18.866;2023-02-13T02:47:54;102308.38;;;14.86;30.35
77205;BME280;66188;46.626;18.866;2023-02-13T02:58:52;102333.00;;;14.91;30.75
77205;BME280;66188;46.626;18.866;2023-02-13T03:01:39;102334.22;;;14.87;30.57
77205;BME280;66188;46.626;18.866;2023-02-13T03:04:30;102336.91;;;14.87;31.03
77205;BME280;66188;46.626;18.866;2023-02-13T03:07:16;102336.13;;;14.85;30.65
77205;BME280;66188;46.626;18.866;2023-02-13T03:09:47;102340.75;;;14.83;30.49
77205;BME280;66188;46.626;18.866;2023-02-13T03:12:44;102340.91;;;14.81;30.43
77205;BME280;66188;46.626;18.866;2023-02-13T03:15:31;102340.16;;;14.79;30.28
77205;BME280;66188;46.626;18.866;2023-02-13T03:17:58;102349.16;;;14.78;30.55
77205;BME280;66188;46.626;18.866;2023-02-13T03:20:54;102347.44;;;14.77;30.24
77205;BME280;66188;46.626;18.866;2023-02-13T03:23:59;102355.63;;;14.76;30.08
77205;BME280;66188;46.626;18.866;2023-02-13T03:27:01;102356.72;;;14.73;30.16
77205;BME280;66188;46.626;18.866;2023-02-13T03:32:48;102356.06;;;14.70;30.34
77205;BME280;66188;46.626;18.866;2023-02-13T03:35:46;102357.06;;;14.69;30.59
77205;BME280;66188;46.626;18.866;2023-02-13T03:41:41;102350.22;;;14.65;30.29
77205;BME280;66188;46.626;18.866;2023-02-13T03:44:20;102348.53;;;14.64;30.95
77205;BME280;66188;46.626;18.866;2023-02-13T03:46:50;102339.84;;;14.60;30.49
77205;BME280;66188;46.626;18.866;2023-02-13T03:49:23;102339.00;;;14.60;30.28
77205;BME280;66188;46.626;18.866;2023-02-13T03:52:17;102334.63;;;14.59;30.86
77205;BME280;66188;46.626;18.866;2023-02-13T03:54:51;102334.72;;;14.57;30.37
77205;BME280;66188;46.626;18.866;2023-02-13T03:57:39;102336.56;;;14.57;30.65
77205;BME280;66188;46.626;18.866;2023-02-13T04:00:28;102325.44;;;14.50;30.18
77205;BME280;66188;46.626;18.866;2023-02-13T04:03:09;102338.75;;;14.51;30.57
77205;BME280;66188;46.626;18.866;2023-02-13T04:05:43;102343.09;;;14.52;30.40
77205;BME280;66188;46.626;18.866;2023-02-13T04:08:11;102334.56;;;14.47;30.87
77205;BME280;66188;46.626;18.866;2023-02-13T04:10:42;102337.25;;;14.47;31.02
77205;BME280;66188;46.626;18.866;2023-02-13T04:13:19;102346.38;;;14.45;29.95
77205;BME280;66188;46.626;18.866;2023-02-13T04:15:55;102334.56;;;14.47;29.71
77205;BME280;66188;46.626;18.866;2023-02-13T04:18:25;102331.59;;;14.39;30.31
77205;BME280;66188;46.626;18.866;2023-02-13T04:20:52;102340.28;;;14.43;30.54
77205;BME280;66188;46.626;18.866;2023-02-13T04:23:18;102332.94;;;14.34;31.03
77205;BME280;66188;46.626;18.866;2023-02-13T04:25:47;102338.91;;;14.37;29.76
77205;BME280;66188;46.626;18.866;2023-02-13T04:28:15;102344.03;;;14.40;30.92
77205;BME280;66188;46.626;18.866;2023-02-13T04:30:41;102341.38;;;14.40;31.00
77205;BME280;66188;46.626;18.866;2023-02-13T04:33:07;102348.75;;;14.37;31.04
77205;BME280;66188;46.626;18.866;2023-02-13T04:35:32;102318.59;;;14.22;30.21
77205;BME280;66188;46.626;18.866;2023-02-13T04:37:59;102346.09;;;14.37;30.81
77205;BME280;66188;46.626;18.866;2023-02-13T04:40:25;102343.41;;;14.37;30.75
77205;BME280;66188;46.626;18.866;2023-02-13T04:42:50;102342.13;;;14.30;30.55
77205;BME280;66188;46.626;18.866;2023-02-13T04:45:16;102349.25;;;14.31;30.53
77205;BME280;66188;46.626;18.866;2023-02-13T04:47:42;102344.81;;;14.30;31.01
77205;BME280;66188;46.626;18.866;2023-02-13T04:50:07;102341.28;;;14.29;30.53
77205;BME280;66188;46.626;18.866;2023-02-13T04:52:33;102347.50;;;14.30;31.37
77205;BME280;66188;46.626;18.866;2023-02-13T04:54:58;102343.94;;;14.29;30.66
77205;BME280;66188;46.626;18.866;2023-02-13T04:57:24;102343.34;;;14.26;31.03
77205;BME280;66188;46.626;18.866;2023-02-13T04:59:50;102338.09;;;14.24;30.71
77205;BME280;66188;46.626;18.866;2023-02-13T05:02:16;102345.38;;;14.22;30.53
77205;BME280;66188;46.626;18.866;2023-02-13T05:04:41;102344.53;;;14.22;30.77
77205;BME280;66188;46.626;18.866;2023-02-13T05:07:07;102340.16;;;14.21;29.96
77205;BME280;66188;46.626;18.866;2023-02-13T05:09:32;102347.41;;;14.19;30.52
77205;BME280;66188;46.626;18.866;2023-02-13T05:11:58;102344.00;;;14.17;30.85
77205;BME280;66188;46.626;18.866;2023-02-13T05:14:23;102341.34;;;14.17;30.58
77205;BME280;66188;46.626;18.866;2023-02-13T05:16:49;102336.44;;;14.11;30.43
77205;BME280;66188;46.626;18.866;2023-02-13T05:19:15;102349.34;;;14.17;31.25
77205;BME280;66188;46.626;18.866;2023-02-13T05:21:41;102345.81;;;14.16;31.11
77205;BME280;66188;46.626;18.866;2023-02-13T05:24:25;102345.22;;;14.13;30.28
77205;BME280;66188;46.626;18.866;2023-02-13T05:26:51;102342.63;;;14.11;30.44
77205;BME280;66188;46.626;18.866;2023-02-13T05:29:16;102334.84;;;14.08;30.84
77205;BME280;66188;46.626;18.866;2023-02-13T05:31:51;102348.25;;;14.08;30.89
77205;BME280;66188;46.626;18.866;2023-02-13T05:34:21;102344.69;;;14.08;30.79
77205;BME280;66188;46.626;18.866;2023-02-13T05:36:47;102340.78;;;14.01;30.47
77205;BME280;66188;46.626;18.866;2023-02-13T05:39:16;102340.66;;;14.02;30.60
77205;BME280;66188;46.626;18.866;2023-02-13T05:41:45;102351.00;;;14.07;31.00
77205;BME280;66188;46.626;18.866;2023-02-13T05:44:11;102345.78;;;14.05;30.03
77205;BME280;66188;46.626;18.866;2023-02-13T05:46:38;102355.41;;;14.08;31.11
77205;BME280;66188;46.626;18.866;2023-02-13T05:49:05;102333.91;;;13.97;30.10
77205;BME280;66188;46.626;18.866;2023-02-13T05:51:31;102345.25;;;14.00;30.05
77205;BME280;66188;46.626;18.866;2023-02-13T05:53:56;102358.19;;;14.06;30.58
77205;BME280;66188;46.626;18.866;2023-02-13T05:56:25;102355.63;;;14.05;30.13
77205;BME280;66188;46.626;18.866;2023-02-13T05:58:54;102353.91;;;14.04;29.95
77205;BME280;66188;46.626;18.866;2023-02-13T06:01:21;102360.97;;;14.05;31.22
77205;BME280;66188;46.626;18.866;2023-02-13T06:03:47;102359.25;;;14.04;30.50
77205;BME280;66188;46.626;18.866;2023-02-13T06:06:13;102362.81;;;14.04;30.68
77205;BME280;66188;46.626;18.866;2023-02-13T06:08:39;102338.41;;;13.96;30.70
77205;BME280;66188;46.626;18.866;2023-02-13T06:11:05;102356.59;;;14.04;30.88
77205;BME280;66188;46.626;18.866;2023-02-13T06:13:31;102355.63;;;14.05;30.75
77205;BME280;66188;46.626;18.866;2023-02-13T06:15:56;102347.81;;;14.02;30.18
77205;BME280;66188;46.626;18.866;2023-02-13T06:18:22;102352.31;;;14.01;30.78
77205;BME280;66188;46.626;18.866;2023-02-13T06:20:48;102345.13;;;14.02;30.64
77205;BME280;66188;46.626;18.866;2023-02-13T06:23:13;102342.69;;;13.99;31.30
77205;BME280;66188;46.626;18.866;2023-02-13T06:25:39;102349.41;;;14.04;30.15
77205;BME280;66188;46.626;18.866;2023-02-13T06:28:05;102347.47;;;14.06;30.49
77205;BME280;66188;46.626;18.866;2023-02-13T06:30:31;102347.25;;;14.09;30.67
77205;BME280;66188;46.626;18.866;2023-02-13T06:32:56;102340.09;;;14.10;29.68
77205;BME280;66188;46.626;18.866;2023-02-13T06:35:22;102343.63;;;14.10;30.61
77205;BME280;66188;46.626;18.866;2023-02-13T06:37:47;102346.06;;;14.13;30.57
77205;BME280;66188;46.626;18.866;2023-02-13T06:40:14;102343.41;;;14.13;30.74
77205;BME280;66188;46.626;18.866;2023-02-13T06:42:44;102345.81;;;14.16;31.15
77205;BME280;66188;46.626;18.866;2023-02-13T06:45:10;102362.53;;;14.20;29.84
77205;BME280;66188;46.626;18.866;2023-02-13T06:47:40;102349.50;;;14.15;30.53
77205;BME280;66188;46.626;18.866;2023-02-13T06:50:05;102355.44;;;14.19;30.07
77205;BME280;66188;46.626;18.866;2023-02-13T06:52:31;102356.75;;;13.41;31.47
77205;BME280;66188;46.626;18.866;2023-02-13T06:54:57;102357.91;;;13.62;31.19
77205;BME280;66188;46.626;18.866;2023-02-13T06:57:22;102357.19;;;13.83;31.01
77205;BME280;66188;46.626;18.866;2023-02-13T06:59:48;102351.19;;;13.92;30.89
77205;BME280;66188;46.626;18.866;2023-02-13T07:02:13;102348.91;;;13.99;30.00
77205;BME280;66188;46.626;18.866;2023-02-13T07:04:39;102353.91;;;14.04;30.65
77205;BME280;66188;46.626;18.866;2023-02-13T07:07:05;102350.41;;;14.03;30.42
77205;BME280;66188;46.626;18.866;2023-02-13T07:09:31;102359.47;;;14.13;30.39
77205;BME280;66188;46.626;18.866;2023-02-13T07:11:57;102358.69;;;14.11;30.95
77205;BME280;66188;46.626;18.866;2023-02-13T07:14:22;102360.06;;;14.17;30.63
77205;BME280;66188;46.626;18.866;2023-02-13T07:16:48;102356.31;;;14.19;30.45
77205;BME280;66188;46.626;18.866;2023-02-13T07:19:14;102359.97;;;14.18;30.21
77205;BME280;66188;46.626;18.866;2023-02-13T07:21:39;102366.81;;;14.22;30.80
77205;BME280;66188;46.626;18.866;2023-02-13T07:24:05;102359.72;;;14.21;30.75
77205;BME280;66188;46.626;18.866;2023-02-13T07:26:30;102364.00;;;14.24;30.60
77205;BME280;66188;46.626;18.866;2023-02-13T07:28:56;102355.72;;;14.16;30.08
77205;BME280;66188;46.626;18.866;2023-02-13T07:31:21;102368.75;;;14.20;30.55
77205;BME280;66188;46.626;18.866;2023-02-13T07:33:47;102371.06;;;14.25;30.54
77205;BME280;66188;46.626;18.866;2023-02-13T07:36:13;102355.44;;;14.19;30.86
77205;BME280;66188;46.626;18.866;2023-02-13T07:38:39;102376.09;;;14.29;30.67
77205;BME280;66188;46.626;18.866;2023-02-13T07:41:04;102363.25;;;14.22;30.69
77205;BME280;66188;46.626;18.866;2023-02-13T07:43:30;102373.53;;;14.28;30.63
77205;BME280;66188;46.626;18.866;2023-02-13T07:46:00;102378.69;;;14.31;31.05
77205;BME280;66188;46.626;18.866;2023-02-13T07:48:27;102370.53;;;14.32;31.43
77205;BME280;66188;46.626;18.866;2023-02-13T07:50:54;102376.41;;;14.37;30.15
77205;BME280;66188;46.626;18.866;2023-02-13T07:53:19;102370.31;;;14.35;30.58
77205;BME280;66188;46.626;18.866;2023-02-13T07:55:47;102372.88;;;14.37;30.27
77205;BME280;66188;46.626;18.866;2023-02-13T07:58:14;102369.09;;;14.39;30.58
77205;BME280;66188;46.626;18.866;2023-02-13T08:00:39;102373.72;;;14.37;30.76
77205;BME280;66188;46.626;18.866;2023-02-13T08:03:05;102371.69;;;14.41;30.99
77205;BME280;66188;46.626;18.866;2023-02-13T08:05:31;102376.31;;;14.39;30.60
77205;BME280;66188;46.626;18.866;2023-02-13T08:07:57;102370.19;;;14.37;30.36
77205;BME280;66188;46.626;18.866;2023-02-13T08:10:23;102378.88;;;14.40;30.98
77205;BME280;66188;46.626;18.866;2023-02-13T08:13:08;102383.13;;;14.43;31.08
77205;BME280;66188;46.626;18.866;2023-02-13T08:15:34;102380.25;;;14.46;31.04
77205;BME280;66188;46.626;18.866;2023-02-13T08:18:00;102368.59;;;14.34;30.82
77205;BME280;66188;46.626;18.866;2023-02-13T08:20:26;102385.59;;;14.46;30.27
77205;BME280;66188;46.626;18.866;2023-02-13T08:22:51;102389.00;;;14.48;31.02
77205;BME280;66188;46.626;18.866;2023-02-13T08:25:17;102385.47;;;14.47;30.63
77205;BME280;66188;46.626;18.866;2023-02-13T08:27:44;102359.47;;;14.37;31.09
77205;BME280;66188;46.626;18.866;2023-02-13T08:30:10;102390.47;;;14.52;30.98
77205;BME280;66188;46.626;18.866;2023-02-13T08:32:36;102394.16;;;14.51;30.29
77205;BME280;66188;46.626;18.866;2023-02-13T08:35:01;102388.78;;;14.51;30.99
77205;BME280;66188;46.626;18.866;2023-02-13T08:37:27;102384.16;;;14.53;30.28
77205;BME280;66188;46.626;18.866;2023-02-13T08:39:53;102384.16;;;14.53;31.03
77205;BME280;66188;46.626;18.866;2023-02-13T08:42:18;102386.84;;;14.53;31.50
77205;BME280;66188;46.626;18.866;2023-02-13T08:44:44;102389.38;;;14.54;30.94
77205;BME280;66188;46.626;18.866;2023-02-13T08:47:09;102387.69;;;14.53;30.65
77205;BME280;66188;46.626;18.866;2023-02-13T08:49:35;102390.97;;;14.57;30.94
77205;BME280;66188;46.626;18.866;2023-02-13T08:52:01;102391.84;;;14.57;31.04
77205;BME280;66188;46.626;18.866;2023-02-13T08:54:27;102393.78;;;14.55;30.80
77205;BME280;66188;46.626;18.866;2023-02-13T08:56:53;102398.06;;;14.58;31.54
77205;BME280;66188;46.626;18.866;2023-02-13T08:59:19;102386.97;;;14.51;32.00
77205;BME280;66188;46.626;18.866;2023-02-13T09:01:45;102397.19;;;14.57;31.73
77205;BME280;66188;46.626;18.866;2023-02-13T09:04:10;102403.56;;;14.57;30.80
77205;BME280;66188;46.626;18.866;2023-02-13T09:06:36;102396.25;;;14.59;30.84
77205;BME280;66188;46.626;18.866;2023-02-13T09:09:04;102404.38;;;14.57;31.42
77205;BME280;66188;46.626;18.866;2023-02-13T09:11:29;102401.59;;;14.59;32.06
77205;BME280;66188;46.626;18.866;2023-02-13T09:13:55;102388.88;;;14.49;31.62
77205;BME280;66188;46.626;18.866;2023-02-13T09:16:21;102397.19;;;14.57;31.62
77205;BME280;66188;46.626;18.866;2023-02-13T09:18:48;102404.16;;;14.60;31.36
77205;BME280;66188;46.626;18.866;2023-02-13T09:21:14;102401.97;;;14.54;32.47
77205;BME280;66188;46.626;18.866;2023-02-13T09:23:40;102401.69;;;14.57;31.86
77205;BME280;66188;46.626;18.866;2023-02-13T09:26:11;102395.00;;;14.51;31.84
77205;BME280;66188;46.626;18.866;2023-02-13T09:28:37;102402.69;;;14.56;31.52
77205;BME280;66188;46.626;18.866;2023-02-13T09:31:17;102397.19;;;14.57;31.39
77205;BME280;66188;46.626;18.866;2023-02-13T09:33:44;102404.72;;;14.52;31.49
77205;BME280;66188;46.626;18.866;2023-02-13T09:36:14;102410.31;;;14.49;32.37
77205;BME280;66188;46.626;18.866;2023-02-13T09:38:43;102403.25;;;14.48;31.67
77205;BME280;66188;46.626;18.866;2023-02-13T09:46:17;102399.94;;;14.45;32.55
77205;BME280;66188;46.626;18.866;2023-02-13T09:48:48;102396.53;;;14.43;31.78
77205;BME280;66188;46.626;18.866;2023-02-13T09:51:17;102406.03;;;14.47;32.14
77205;BME280;66188;46.626;18.866;2023-02-13T09:53:55;102401.44;;;14.49;32.30
77205;BME280;66188;46.626;18.866;2023-02-13T10:01:41;102394.72;;;14.43;32.18
77205;BME280;66188;46.626;18.866;2023-02-13T10:07:38;102391.19;;;14.43;32.83
77205;BME280;66188;46.626;18.866;2023-02-13T10:15:40;102388.13;;;14.36;32.25
77205;BME280;66188;46.626;18.866;2023-02-13T10:18:16;102379.94;;;14.38;32.80
77205;BME280;66188;46.626;18.866;2023-02-13T10:25:53;102372.03;;;14.36;33.15
77205;BME280;66188;46.626;18.866;2023-02-13T10:28:37;102369.38;;;14.36;32.33
77205;BME280;66188;46.626;18.866;2023-02-13T10:31:09;102365.09;;;14.34;33.07
77205;BME280;66188;46.626;18.866;2023-02-13T10:33:57;102366.03;;;14.33;32.72
77205;BME280;66188;46.626;18.866;2023-02-13T10:36:36;102366.38;;;14.28;33.05
77205;BME280;66188;46.626;18.866;2023-02-13T10:41:54;102361.75;;;14.30;33.38
77205;BME280;66188;46.626;18.866;2023-02-13T10:58:05;102357.28;;;14.31;33.62
77205;BME280;66188;46.626;18.866;2023-02-13T11:00:50;102349.78;;;14.23;32.94
77205;BME280;66188;46.626;18.866;2023-02-13T11:03:23;102362.81;;;14.28;32.98
77205;BME280;66188;46.626;18.866;2023-02-13T11:05:50;102359.41;;;14.26;33.60
77205;BME280;66188;46.626;18.866;2023-02-13T11:10:47;102341.97;;;14.20;33.44
77205;BME280;66188;46.626;18.866;2023-02-13T11:13:22;102339.63;;;14.16;33.48
77205;BME280;66188;46.626;18.866;2023-02-13T11:16:05;102338.88;;;14.14;34.10
77205;BME280;66188;46.626;18.866;2023-02-13T11:18:37;102337.19;;;14.13;33.92
77205;BME280;66188;46.626;18.866;2023-02-13T11:21:31;102332.91;;;14.10;33.70
77205;BME280;66188;46.626;18.866;2023-02-13T11:23:58;102327.56;;;14.10;34.10
77205;BME280;66188;46.626;18.866;2023-02-13T11:26:31;102331.31;;;14.08;34.17
77205;BME280;66188;46.626;18.866;2023-02-13T11:29:19;102326.91;;;14.07;33.72
77205;BME280;66188;46.626;18.866;2023-02-13T11:31:46;102327.78;;;14.07;34.70
77205;BME280;66188;46.626;18.866;2023-02-13T11:34:28;102330.59;;;14.06;34.65
77205;BME280;66188;46.626;18.866;2023-02-13T11:37:13;102328.72;;;14.06;34.25
77205;BME280;66188;46.626;18.866;2023-02-13T11:39:41;102326.31;;;14.03;33.88
77205;BME280;66188;46.626;18.866;2023-02-13T11:42:14;102319.00;;;14.05;33.58
77205;BME280;66188;46.626;18.866;2023-02-13T11:44:41;102325.44;;;14.03;34.41
77205;BME280;66188;46.626;18.866;2023-02-13T11:47:09;102324.72;;;14.01;34.70
77205;BME280;66188;46.626;18.866;2023-02-13T11:49:36;102316.56;;;14.02;34.44
77205;BME280;66188;46.626;18.866;2023-02-13T11:52:09;102311.19;;;14.02;34.00
77205;BME280;66188;46.626;18.866;2023-02-13T11:54:43;102317.50;;;14.01;34.44
77205;BME280;66188;46.626;18.866;2023-02-13T11:59:43;102313.38;;;13.97;34.34
77205;BME280;66188;46.626;18.866;2023-02-13T12:02:23;102307.16;;;13.97;34.43
77205;BME280;66188;46.626;18.866;2023-02-13T12:04:51;102302.28;;;13.90;34.65
77205;BME280;66188;46.626;18.866;2023-02-13T12:07:30;102285.69;;;13.85;34.13
77205;BME280;66188;46.626;18.866;2023-02-13T12:10:26;102300.94;;;13.96;34.59
77205;BME280;66188;46.626;18.866;2023-02-13T12:12:57;102302.78;;;13.96;33.97
77205;BME280;66188;46.626;18.866;2023-02-13T12:15:32;102292.63;;;13.88;34.79
77205;BME280;66188;46.626;18.866;2023-02-13T12:20:24;102297.66;;;13.92;34.32
77205;BME280;66188;46.626;18.866;2023-02-13T12:23:12;102284.50;;;13.89;35.08
77205;BME280;66188;46.626;18.866;2023-02-13T12:26:05;102293.25;;;13.91;34.27
77205;BME280;66188;46.626;18.866;2023-02-13T12:47:36;102266.19;;;13.83;34.85
77205;BME280;66188;46.626;18.866;2023-02-13T12:50:28;102263.28;;;13.86;34.86
77205;BME280;66188;46.626;18.866;2023-02-13T12:53:30;102258.94;;;13.85;35.17
77205;BME280;66188;46.626;18.866;2023-02-13T12:58:56;102249.06;;;13.86;34.46
77205;BME280;66188;46.626;18.866;2023-02-13T13:15:00;102239.69;;;13.80;35.32
77205;BME280;66188;46.626;18.866;2023-02-13T13:17:39;102244.69;;;13.85;35.37
77205;BME280;66188;46.626;18.866;2023-02-13T13:23:21;102227.13;;;13.81;35.11
77205;BME280;66188;46.626;18.866;2023-02-13T13:28:38;102223.09;;;13.75;34.81
77205;BME280;66188;46.626;18.866;2023-02-13T13:31:05;102213.59;;;13.71;35.49
77205;BME280;66188;46.626;18.866;2023-02-13T13:33:32;102229.94;;;13.79;35.55
77205;BME280;66188;46.626;18.866;2023-02-13T13:38:56;102231.66;;;13.80;35.43
77205;BME280;66188;46.626;18.866;2023-02-13T13:46:54;102236.16;;;13.80;35.34
77205;BME280;66188;46.626;18.866;2023-02-13T13:49:37;102219.81;;;13.72;35.85
77205;BME280;66188;46.626;18.866;2023-02-13T13:52:24;102231.88;;;13.77;35.54
77205;BME280;66188;46.626;18.866;2023-02-13T13:54:51;102231.88;;;13.77;35.45
77205;BME280;66188;46.626;18.866;2023-02-13T13:57:19;102228.44;;;13.75;35.40
77205;BME280;66188;46.626;18.866;2023-02-13T14:07:36;102228.44;;;13.75;34.90
77205;BME280;66188;46.626;18.866;2023-02-13T14:10:04;102231.25;;;13.74;35.74
77205;BME280;66188;46.626;18.866;2023-02-13T14:14:56;102223.34;;;13.72;35.18
77205;BME280;66188;46.626;18.866;2023-02-13T14:20:27;102223.34;;;13.72;35.25
77205;BME280;66188;46.626;18.866;2023-02-13T14:25:43;102227.94;;;13.70;36.06
77205;BME280;66188;46.626;18.866;2023-02-13T14:28:23;102221.84;;;13.68;35.65
77205;BME280;66188;46.626;18.866;2023-02-13T14:30:51;102222.69;;;13.69;36.18
77205;BME280;66188;46.626;18.866;2023-02-13T14:33:24;102228.91;;;13.69;36.22
77205;BME280;66188;46.626;18.866;2023-02-13T14:36:08;102226.81;;;13.62;36.02
77205;BME280;66188;46.626;18.866;2023-02-13T14:38:42;102219.28;;;13.67;35.66
77205;BME280;66188;46.626;18.866;2023-02-13T14:41:41;102226.22;;;13.69;36.15
77205;BME280;66188;46.626;18.866;2023-02-13T14:44:42;102218.56;;;13.65;35.28
77205;BME280;66188;46.626;18.866;2023-02-13T14:49:50;102220.38;;;13.64;35.66
77205;BME280;66188;46.626;18.866;2023-02-13T14:52:29;102222.06;;;13.65;35.69
77205;BME280;66188;46.626;18.866;2023-02-13T14:55:42;102209.25;;;13.58;35.95
77205;BME280;66188;46.626;18.866;2023-02-13T14:58:10;102215.03;;;13.64;35.70
77205;BME280;66188;46.626;18.866;2023-02-13T15:00:45;102209.66;;;13.64;35.75
77205;BME280;66188;46.626;18.866;2023-02-13T15:05:55;102213.44;;;13.62;35.87
77205;BME280;66188;46.626;18.866;2023-02-13T15:08:35;102207.09;;;13.63;36.38
77205;BME280;66188;46.626;18.866;2023-02-13T15:11:04;102214.38;;;13.61;35.66
77205;BME280;66188;46.626;18.866;2023-02-13T15:13:49;102210.75;;;13.62;35.85
77205;BME280;66188;46.626;18.866;2023-02-13T15:16:15;102214.28;;;13.62;35.65
77205;BME280;66188;46.626;18.866;2023-02-13T15:18:49;102218.03;;;13.60;35.89
77205;BME280;66188;46.626;18.866;2023-02-13T15:21:21;102200.09;;;13.49;35.56
77205;BME280;66188;46.626;18.866;2023-02-13T15:23:54;102219.94;;;13.58;35.69
77205;BME280;66188;46.626;18.866;2023-02-13T15:26:25;102212.69;;;13.60;36.05
77205;BME280;66188;46.626;18.866;2023-02-13T15:29:11;102217.41;;;13.56;36.47
77205;BME280;66188;46.626;18.866;2023-02-13T15:31:37;102217.28;;;13.58;36.59
77205;BME280;66188;46.626;18.866;2023-02-13T15:34:16;102206.19;;;13.51;36.44
77205;BME280;66188;46.626;18.866;2023-02-13T15:36:43;102219.34;;;13.54;35.68